createdAt,value
2023-03-22T00:00:06.061Z,0.00
2023-03-22T00:01:06.079Z,0.00
2023-03-22T00:02:06.069Z,0.00
2023-03-22T00:03:06.247Z,0.00
2023-03-22T00:04:06.106Z,0.00
2023-03-22T00:05:06.018Z,0.00
2023-03-22T00:06:05.998Z,0.00
2023-03-22T00:07:05.997Z,0.00
2023-03-22T00:08:05.987Z,0.00
2023-03-22T00:09:05.993Z,0.00
2023-03-22T00:10:05.985Z,0.00
2023-03-22T00:11:05.938Z,0.00
2023-03-22T00:12:05.950Z,0.00
2023-03-22T00:13:05.926Z,0.00
2023-03-22T00:14:05.989Z,0.00
2023-03-22T00:15:05.918Z,0.00
2023-03-22T00:16:05.973Z,0.00
2023-03-22T00:17:05.890Z,0.00
2023-03-22T00:18:05.894Z,0.00
2023-03-22T00:19:05.876Z,0.00
2023-03-22T00:20:05.935Z,0.00
2023-03-22T00:21:05.862Z,0.00
2023-03-22T00:22:05.847Z,0.00
2023-03-22T00:23:05.854Z,0.00
2023-03-22T00:24:05.844Z,0.00
2023-03-22T00:25:05.823Z,0.00
2023-03-22T00:26:05.794Z,0.00
2023-03-22T00:27:05.784Z,0.00
2023-03-22T00:28:05.805Z,0.00
2023-03-22T00:29:05.775Z,0.00
2023-03-22T00:30:05.768Z,0.00
2023-03-22T00:31:05.821Z,0.00
2023-03-22T00:32:05.726Z,0.00
2023-03-22T00:33:05.759Z,0.00
2023-03-22T00:34:05.721Z,0.00
2023-03-22T00:35:05.716Z,0.00
2023-03-22T00:36:05.683Z,0.00
2023-03-22T00:37:05.709Z,0.00
2023-03-22T00:38:05.699Z,0.00
2023-03-22T00:39:05.673Z,0.00
2023-03-22T00:40:05.640Z,0.00
2023-03-22T00:41:05.636Z,0.00
2023-03-22T00:42:05.686Z,0.00
2023-03-22T00:43:05.619Z,0.00
2023-03-22T00:44:05.622Z,0.00
2023-03-22T00:45:05.626Z,0.00
2023-03-22T00:46:05.715Z,0.00
2023-03-22T00:47:05.598Z,0.00
2023-03-22T00:48:05.612Z,0.00
2023-03-22T00:49:05.539Z,0.00
2023-03-22T00:50:05.568Z,0.00
2023-03-22T00:51:05.551Z,0.00
2023-03-22T00:52:05.522Z,0.00
2023-03-22T00:53:05.496Z,0.00
2023-03-22T00:54:05.501Z,0.00
2023-03-22T00:55:05.495Z,0.00
2023-03-22T00:56:05.524Z,0.00
2023-03-22T00:57:05.500Z,0.00
2023-03-22T00:58:05.458Z,0.00
2023-03-22T00:59:05.451Z,0.00
2023-03-22T01:00:05.449Z,0.00
2023-03-22T01:01:05.473Z,0.00
2023-03-22T01:02:05.448Z,0.00
2023-03-22T01:03:05.407Z,0.00
2023-03-22T01:04:05.426Z,0.00
2023-03-22T01:05:05.386Z,0.00
2023-03-22T01:06:05.381Z,0.00
2023-03-22T01:07:05.369Z,0.00
2023-03-22T01:08:05.393Z,0.00
2023-03-22T01:09:05.410Z,0.00
2023-03-22T01:10:05.377Z,0.00
2023-03-22T01:11:05.350Z,0.00
2023-03-22T01:12:05.315Z,0.00
2023-03-22T01:13:05.316Z,0.00
2023-03-22T01:14:05.304Z,0.00
2023-03-22T01:15:05.310Z,0.00
2023-03-22T01:16:05.294Z,0.00
2023-03-22T01:17:05.248Z,0.00
2023-03-22T01:18:05.261Z,0.00
2023-03-22T01:19:05.235Z,0.00
2023-03-22T01:20:05.239Z,0.00
2023-03-22T01:21:05.234Z,0.00
2023-03-22T01:22:05.256Z,0.00
2023-03-22T01:23:05.204Z,0.00
2023-03-22T01:24:05.999Z,0.00
2023-03-22T01:25:05.314Z,0.00
2023-03-22T01:26:05.158Z,0.00
2023-03-22T01:27:05.162Z,0.00
2023-03-22T01:28:05.191Z,0.00
2023-03-22T01:29:05.149Z,0.00
2023-03-22T01:30:05.170Z,0.00
2023-03-22T01:31:05.269Z,0.00
2023-03-22T01:32:05.132Z,0.00
2023-03-22T01:33:05.235Z,0.00
2023-03-22T01:34:05.129Z,0.00
2023-03-22T01:35:05.118Z,0.00
2023-03-22T01:36:05.130Z,0.00
2023-03-22T01:37:05.123Z,0.00
2023-03-22T01:38:05.079Z,0.00
2023-03-22T01:39:05.104Z,0.00
2023-03-22T01:40:05.066Z,0.00
2023-03-22T01:41:05.085Z,0.00
2023-03-22T01:42:05.115Z,0.00
2023-03-22T01:43:05.073Z,0.00
2023-03-22T01:44:05.211Z,0.00
2023-03-22T01:45:04.972Z,0.00
2023-03-22T01:46:05.065Z,0.00
2023-03-22T01:47:04.999Z,0.00
2023-03-22T01:48:05.079Z,0.00
2023-03-22T01:49:05.204Z,0.00
2023-03-22T01:50:04.962Z,0.00
2023-03-22T01:51:05.075Z,0.00
2023-03-22T01:52:05.057Z,0.00
2023-03-22T01:53:04.903Z,0.00
2023-03-22T01:54:04.883Z,0.00
2023-03-22T01:55:04.863Z,0.00
2023-03-22T01:56:04.905Z,0.00
2023-03-22T01:57:04.864Z,0.00
2023-03-22T01:58:04.900Z,0.00
2023-03-22T01:59:04.812Z,0.00
2023-03-22T02:00:04.868Z,0.00
2023-03-22T02:01:04.886Z,0.00
2023-03-22T02:02:04.817Z,0.00
2023-03-22T02:03:04.890Z,0.00
2023-03-22T02:04:04.845Z,0.00
2023-03-22T02:05:04.784Z,0.00
2023-03-22T02:06:05.101Z,0.00
2023-03-22T02:07:04.772Z,0.00
2023-03-22T02:08:04.790Z,0.00
2023-03-22T02:09:04.707Z,0.00
2023-03-22T02:10:04.776Z,0.00
2023-03-22T02:11:04.730Z,0.00
2023-03-22T02:12:04.794Z,0.00
2023-03-22T02:13:04.682Z,0.00
2023-03-22T02:14:04.696Z,0.00
2023-03-22T02:15:04.688Z,0.00
2023-03-22T02:16:04.742Z,0.00
2023-03-22T02:17:04.721Z,0.00
2023-03-22T02:18:04.696Z,0.00
2023-03-22T02:19:04.670Z,0.00
2023-03-22T02:20:04.640Z,0.00
2023-03-22T02:21:04.637Z,0.00
2023-03-22T02:22:04.630Z,0.00
2023-03-22T02:23:04.644Z,0.00
2023-03-22T02:24:04.625Z,0.00
2023-03-22T02:25:04.645Z,0.00
2023-03-22T02:26:04.589Z,0.00
2023-03-22T02:27:04.637Z,0.00
2023-03-22T02:28:04.583Z,0.00
2023-03-22T02:29:04.545Z,0.00
2023-03-22T02:30:04.535Z,0.00
2023-03-22T02:31:04.605Z,0.00
2023-03-22T02:32:04.547Z,0.00
2023-03-22T02:33:04.517Z,0.00
2023-03-22T02:34:04.498Z,0.00
2023-03-22T02:35:04.470Z,0.00
2023-03-22T02:36:04.490Z,0.00
2023-03-22T02:37:04.511Z,0.00
2023-03-22T02:38:04.465Z,0.00
2023-03-22T02:39:04.430Z,0.00
2023-03-22T02:40:04.415Z,0.00
2023-03-22T02:41:04.486Z,0.00
2023-03-22T02:42:04.388Z,0.00
2023-03-22T02:43:04.396Z,0.00
2023-03-22T02:44:04.403Z,0.00
2023-03-22T02:45:04.446Z,0.00
2023-03-22T02:46:04.432Z,0.00
2023-03-22T02:47:04.364Z,0.00
2023-03-22T02:48:04.482Z,0.00
2023-03-22T02:49:04.412Z,0.00
2023-03-22T02:50:04.341Z,0.00
2023-03-22T02:51:04.385Z,0.00
2023-03-22T02:52:04.338Z,0.00
2023-03-22T02:53:04.269Z,0.00
2023-03-22T02:54:04.360Z,0.00
2023-03-22T02:55:04.278Z,0.00
2023-03-22T02:56:04.417Z,0.00
2023-03-22T02:57:04.327Z,0.00
2023-03-22T02:58:04.317Z,0.00
2023-03-22T02:59:04.302Z,0.00
2023-03-22T03:00:04.245Z,0.00
2023-03-22T03:01:04.334Z,0.00
2023-03-22T03:02:04.346Z,0.00
2023-03-22T03:03:04.220Z,0.00
2023-03-22T03:04:04.220Z,0.00
2023-03-22T03:05:04.193Z,0.00
2023-03-22T03:06:04.162Z,0.00
2023-03-22T03:07:04.286Z,0.00
2023-03-22T03:08:04.124Z,0.00
2023-03-22T03:09:04.207Z,0.00
2023-03-22T03:10:04.915Z,0.00
2023-03-22T03:11:04.080Z,0.00
2023-03-22T03:12:04.083Z,0.00
2023-03-22T03:13:04.083Z,0.00
2023-03-22T03:14:04.111Z,0.00
2023-03-22T03:15:04.091Z,0.00
2023-03-22T03:16:04.123Z,0.00
2023-03-22T03:17:04.058Z,0.00
2023-03-22T03:18:03.995Z,0.00
2023-03-22T03:19:04.149Z,0.00
2023-03-22T03:20:04.010Z,0.00
2023-03-22T03:21:04.020Z,0.00
2023-03-22T03:22:04.060Z,0.00
2023-03-22T03:23:04.050Z,0.00
2023-03-22T03:24:04.019Z,0.00
2023-03-22T03:25:04.000Z,0.00
2023-03-22T03:26:04.040Z,0.00
2023-03-22T03:27:04.055Z,0.00
2023-03-22T03:28:03.959Z,0.00
2023-03-22T03:29:03.900Z,0.00
2023-03-22T03:30:03.943Z,0.00
2023-03-22T03:31:03.910Z,0.00
2023-03-22T03:32:03.902Z,0.00
2023-03-22T03:33:03.889Z,0.00
2023-03-22T03:34:03.866Z,0.00
2023-03-22T03:35:03.943Z,0.00
2023-03-22T03:36:03.863Z,0.00
2023-03-22T03:37:03.916Z,0.00
2023-03-22T03:38:03.804Z,0.00
2023-03-22T03:39:03.872Z,0.00
2023-03-22T03:40:03.852Z,0.00
2023-03-22T03:41:03.766Z,0.00
2023-03-22T03:42:03.802Z,0.00
2023-03-22T03:43:03.827Z,0.00
2023-03-22T03:44:03.757Z,0.00
2023-03-22T03:45:03.755Z,0.00
2023-03-22T03:46:03.846Z,0.00
2023-03-22T03:47:03.797Z,0.00
2023-03-22T03:48:03.874Z,0.00
2023-03-22T03:49:03.713Z,0.00
2023-03-22T03:50:03.711Z,0.00
2023-03-22T03:51:03.827Z,0.00
2023-03-22T03:52:03.687Z,0.00
2023-03-22T03:53:03.681Z,0.00
2023-03-22T03:54:03.660Z,0.00
2023-03-22T03:55:03.672Z,0.00
2023-03-22T03:56:03.642Z,0.00
2023-03-22T03:57:04.221Z,0.00
2023-03-22T03:58:04.518Z,0.00
2023-03-22T03:59:03.619Z,0.00
2023-03-22T04:00:03.702Z,0.00
2023-03-22T04:01:03.627Z,0.00
2023-03-22T04:02:03.679Z,0.00
2023-03-22T04:03:03.587Z,0.00
2023-03-22T04:04:03.590Z,0.00
2023-03-22T04:05:03.592Z,0.00
2023-03-22T04:06:03.602Z,0.00
2023-03-22T04:07:03.830Z,0.00
2023-03-22T04:08:03.520Z,0.00
2023-03-22T04:09:03.589Z,0.00
2023-03-22T04:10:03.565Z,0.00
2023-03-22T04:11:03.494Z,0.00
2023-03-22T04:12:03.491Z,0.00
2023-03-22T04:13:03.523Z,0.00
2023-03-22T04:14:03.621Z,0.00
2023-03-22T04:15:03.529Z,0.00
2023-03-22T04:16:03.453Z,0.00
2023-03-22T04:17:03.471Z,0.00
2023-03-22T04:18:03.650Z,0.00
2023-03-22T04:19:03.510Z,0.00
2023-03-22T04:20:05.774Z,0.00
2023-03-22T04:21:03.577Z,0.00
2023-03-22T04:22:03.441Z,0.00
2023-03-22T04:23:03.626Z,0.00
2023-03-22T04:24:03.378Z,0.00
2023-03-22T04:25:03.619Z,0.00
2023-03-22T04:26:03.471Z,0.00
2023-03-22T04:27:03.498Z,0.00
2023-03-22T04:28:03.513Z,0.00
2023-03-22T04:29:03.468Z,0.00
2023-03-22T04:30:03.376Z,0.00
2023-03-22T04:31:03.317Z,0.00
2023-03-22T04:32:03.328Z,0.00
2023-03-22T04:33:03.349Z,0.00
2023-03-22T04:34:03.397Z,0.00
2023-03-22T04:35:03.416Z,0.00
2023-03-22T04:36:04.609Z,0.00
2023-03-22T04:37:03.328Z,0.00
2023-03-22T04:38:03.385Z,0.00
2023-03-22T04:39:03.300Z,0.00
2023-03-22T04:40:03.323Z,0.00
2023-03-22T04:41:03.250Z,0.00
2023-03-22T04:42:03.315Z,0.00
2023-03-22T04:43:03.328Z,0.00
2023-03-22T04:44:03.304Z,0.00
2023-03-22T04:45:03.346Z,0.00
2023-03-22T04:46:03.367Z,0.00
2023-03-22T04:47:03.189Z,0.00
2023-03-22T04:48:03.193Z,0.00
2023-03-22T04:49:03.217Z,0.00
2023-03-22T04:50:03.241Z,0.00
2023-03-22T04:51:03.168Z,0.00
2023-03-22T04:52:03.200Z,0.00
2023-03-22T04:53:03.206Z,0.00
2023-03-22T04:54:03.312Z,0.00
2023-03-22T04:55:03.136Z,0.00
2023-03-22T04:56:03.311Z,0.00
2023-03-22T04:57:03.201Z,0.00
2023-03-22T04:58:03.145Z,0.00
2023-03-22T04:59:02.970Z,1.00
2023-03-22T05:00:03.287Z,1.00
2023-03-22T05:01:03.097Z,1.00
2023-03-22T05:02:03.095Z,1.00
2023-03-22T05:03:03.148Z,1.00
2023-03-22T05:04:03.090Z,2.00
2023-03-22T05:05:03.021Z,2.00
2023-03-22T05:06:02.950Z,1.00
2023-03-22T05:07:03.139Z,1.00
2023-03-22T05:08:02.854Z,2.00
2023-03-22T05:09:03.036Z,3.00
2023-03-22T05:10:03.053Z,4.00
2023-03-22T05:11:03.090Z,5.00
2023-03-22T05:12:03.072Z,4.00
2023-03-22T05:13:02.917Z,11.00
2023-03-22T05:14:03.386Z,9.00
2023-03-22T05:15:02.976Z,9.00
2023-03-22T05:16:02.891Z,8.00
2023-03-22T05:17:02.887Z,10.00
2023-03-22T05:18:03.035Z,12.00
2023-03-22T05:19:03.138Z,14.00
2023-03-22T05:20:02.766Z,16.00
2023-03-22T05:21:03.091Z,20.00
2023-03-22T05:22:03.003Z,22.00
2023-03-22T05:23:03.080Z,28.00
2023-03-22T05:24:03.254Z,25.00
2023-03-22T05:25:02.858Z,30.00
2023-03-22T05:26:03.086Z,30.00
2023-03-22T05:27:02.957Z,37.00
2023-03-22T05:28:02.893Z,41.00
2023-03-22T05:29:02.835Z,47.00
2023-03-22T05:30:02.599Z,55.00
2023-03-22T05:31:02.669Z,62.00
2023-03-22T05:32:02.682Z,73.00
2023-03-22T05:33:02.811Z,82.00
2023-03-22T05:34:02.719Z,87.00
2023-03-22T05:35:02.878Z,92.00
2023-03-22T05:36:02.598Z,108.00
2023-03-22T05:37:02.664Z,127.00
2023-03-22T05:38:02.815Z,122.00
2023-03-22T05:39:02.834Z,103.00
2023-03-22T05:40:02.999Z,142.00
2023-03-22T05:41:02.693Z,141.00
2023-03-22T05:42:03.390Z,113.00
2023-03-22T05:43:02.838Z,108.00
2023-03-22T05:44:02.858Z,144.00
2023-03-22T05:45:02.731Z,141.00
2023-03-22T05:46:02.504Z,124.00
2023-03-22T05:47:02.739Z,131.00
2023-03-22T05:48:02.752Z,139.00
2023-03-22T05:49:02.721Z,132.00
2023-03-22T05:50:02.884Z,161.00
2023-03-22T05:51:03.000Z,251.00
2023-03-22T05:52:02.705Z,271.00
2023-03-22T05:53:02.377Z,285.00
2023-03-22T05:54:02.314Z,287.00
2023-03-22T05:55:02.326Z,327.00
2023-03-22T05:56:02.283Z,334.00
2023-03-22T05:57:02.285Z,349.00
2023-03-22T05:58:02.312Z,364.00
2023-03-22T05:59:02.295Z,381.00
2023-03-22T06:00:02.291Z,400.00
2023-03-22T06:01:02.275Z,382.00
2023-03-22T06:02:02.319Z,439.00
2023-03-22T06:03:02.246Z,490.00
2023-03-22T06:04:02.189Z,589.00
2023-03-22T06:05:02.228Z,638.00
2023-03-22T06:06:02.187Z,620.00
2023-03-22T06:07:02.200Z,635.00
2023-03-22T06:08:02.180Z,661.00
2023-03-22T06:09:15.868Z,767.00
2023-03-22T06:10:02.207Z,796.00
2023-03-22T06:11:02.108Z,866.00
2023-03-22T06:12:02.129Z,943.00
2023-03-22T06:13:02.163Z,995.00
2023-03-22T06:14:02.098Z,1058.00
2023-03-22T06:15:02.109Z,1116.00
2023-03-22T06:16:02.114Z,1190.00
2023-03-22T06:17:02.086Z,1204.00
2023-03-22T06:18:02.067Z,1233.00
2023-03-22T06:19:02.054Z,1324.00
2023-03-22T06:20:02.055Z,1342.00
2023-03-22T06:21:02.074Z,1373.00
2023-03-22T06:22:02.046Z,1360.00
2023-03-22T06:23:02.086Z,1432.00
2023-03-22T06:24:01.973Z,1384.00
2023-03-22T06:25:02.032Z,1340.00
2023-03-22T06:26:01.968Z,1382.00
2023-03-22T06:27:01.952Z,1391.00
2023-03-22T06:28:02.025Z,1370.00
2023-03-22T06:29:01.976Z,1365.00
2023-03-22T06:30:01.934Z,1361.00
2023-03-22T06:31:01.969Z,1450.00
2023-03-22T06:32:01.885Z,1502.00
2023-03-22T06:33:01.970Z,1504.00
2023-03-22T06:34:01.886Z,1457.00
2023-03-22T06:35:01.897Z,1412.00
2023-03-22T06:36:01.856Z,1371.00
2023-03-22T06:37:01.886Z,1343.00
2023-03-22T06:38:01.847Z,1350.00
2023-03-22T06:39:01.869Z,1282.00
2023-03-22T06:40:01.805Z,1256.00
2023-03-22T06:41:01.817Z,1211.00
2023-03-22T06:42:01.810Z,1248.00
2023-03-22T06:43:05.163Z,1189.00
2023-03-22T06:44:01.792Z,1112.00
2023-03-22T06:45:01.775Z,1078.00
2023-03-22T06:46:01.800Z,1049.00
2023-03-22T06:47:01.851Z,1039.00
2023-03-22T06:48:01.887Z,1015.00
2023-03-22T06:49:01.761Z,967.00
2023-03-22T06:50:01.718Z,933.00
2023-03-22T06:51:01.707Z,882.00
2023-03-22T06:52:01.711Z,874.00
2023-03-22T06:53:01.678Z,833.00
2023-03-22T06:54:01.662Z,830.00
2023-03-22T06:55:01.678Z,815.00
2023-03-22T06:56:01.629Z,860.00
2023-03-22T06:57:01.641Z,936.00
2023-03-22T06:58:01.621Z,1030.00
2023-03-22T06:59:01.640Z,1112.00
2023-03-22T07:00:01.624Z,1166.00
2023-03-22T07:01:01.652Z,1211.00
2023-03-22T07:02:01.566Z,1236.00
2023-03-22T07:03:01.573Z,1286.00
2023-03-22T07:04:01.617Z,1325.00
2023-03-22T07:05:01.603Z,1364.00
2023-03-22T07:06:01.550Z,1403.00
2023-03-22T07:07:01.573Z,1444.00
2023-03-22T07:08:01.550Z,1453.00
2023-03-22T07:09:01.525Z,1485.00
2023-03-22T07:10:01.500Z,1477.00
2023-03-22T07:11:01.548Z,1463.00
2023-03-22T07:12:01.482Z,1604.00
2023-03-22T07:13:01.478Z,1744.00
2023-03-22T07:14:01.461Z,1981.00
2023-03-22T07:15:01.488Z,2023.00
2023-03-22T07:16:01.478Z,1986.00
2023-03-22T07:17:01.473Z,1898.00
2023-03-22T07:18:01.428Z,1806.00
2023-03-22T07:19:01.418Z,1744.00
2023-03-22T07:20:01.447Z,1800.00
2023-03-22T07:21:01.382Z,1884.00
2023-03-22T07:22:01.386Z,1967.00
2023-03-22T07:23:01.357Z,2053.00
2023-03-22T07:24:01.464Z,2194.00
2023-03-22T07:25:01.956Z,1994.00
2023-03-22T07:26:01.369Z,2126.00
2023-03-22T07:27:01.299Z,1858.00
2023-03-22T07:28:01.361Z,1959.00
2023-03-22T07:29:01.311Z,2061.00
2023-03-22T07:30:01.288Z,2238.00
2023-03-22T07:31:01.331Z,2436.00
2023-03-22T07:32:01.425Z,2443.00
2023-03-22T07:33:01.252Z,2480.00
2023-03-22T07:34:01.263Z,2459.00
2023-03-22T07:35:01.246Z,2561.00
2023-03-22T07:36:01.290Z,2027.00
2023-03-22T07:37:01.212Z,2553.00
2023-03-22T07:38:01.248Z,2250.00
2023-03-22T07:39:01.192Z,2952.00
2023-03-22T07:40:01.193Z,3061.00
2023-03-22T07:41:01.177Z,3706.00
2023-03-22T07:42:01.163Z,3312.00
2023-03-22T07:43:01.161Z,2655.00
2023-03-22T07:44:15.274Z,3030.00
2023-03-22T07:45:01.167Z,3366.00
2023-03-22T07:46:01.145Z,2633.00
2023-03-22T07:47:01.090Z,2545.00
2023-03-22T07:48:01.155Z,2808.00
2023-03-22T07:49:01.095Z,2827.00
2023-03-22T07:50:01.102Z,2703.00
2023-03-22T07:51:01.101Z,2271.00
2023-03-22T07:52:01.083Z,1972.00
2023-03-22T07:53:01.042Z,2123.00
2023-03-22T07:54:01.050Z,2803.00
2023-03-22T07:55:01.036Z,2093.00
2023-03-22T07:56:01.052Z,2254.00
2023-03-22T07:57:01.026Z,1798.00
2023-03-22T07:58:01.080Z,2031.00
2023-03-22T07:59:01.050Z,2346.00
2023-03-22T08:00:01.042Z,1737.00
2023-03-22T08:01:00.951Z,1932.00
2023-03-22T08:02:01.011Z,1807.00
2023-03-22T08:03:01.012Z,1414.00
2023-03-22T08:04:00.949Z,1531.00
2023-03-22T08:05:01.082Z,1632.00
2023-03-22T08:06:00.907Z,1704.00
2023-03-22T08:07:00.886Z,1906.00
2023-03-22T08:08:01.006Z,2461.00
2023-03-22T08:09:00.864Z,1919.00
2023-03-22T08:10:00.942Z,1863.00
2023-03-22T08:11:00.859Z,2163.00
2023-03-22T08:12:00.882Z,2270.00
2023-03-22T08:13:00.855Z,2018.00
2023-03-22T08:14:00.882Z,1910.00
2023-03-22T08:15:00.809Z,2048.00
2023-03-22T08:16:00.895Z,2634.00
2023-03-22T08:17:00.806Z,1587.00
2023-03-22T08:18:00.823Z,2394.00
2023-03-22T08:19:00.818Z,4511.00
2023-03-22T08:20:00.783Z,2894.00
2023-03-22T08:21:00.782Z,3881.00
2023-03-22T08:22:00.759Z,3975.00
2023-03-22T08:23:00.715Z,2143.00
2023-03-22T08:24:00.822Z,3719.00
2023-03-22T08:25:00.703Z,3735.00
2023-03-22T08:26:00.868Z,3177.00
2023-03-22T08:27:00.703Z,1824.00
2023-03-22T08:28:00.707Z,1945.00
2023-03-22T08:29:00.680Z,2666.00
2023-03-22T08:30:01.110Z,2990.00
2023-03-22T08:31:00.671Z,2237.00
2023-03-22T08:32:00.675Z,3038.00
2023-03-22T08:33:01.477Z,4250.00
2023-03-22T08:34:00.657Z,3217.00
2023-03-22T08:35:00.641Z,3623.00
2023-03-22T08:36:00.623Z,2014.00
2023-03-22T08:37:00.605Z,2564.00
2023-03-22T08:38:00.578Z,2341.00
2023-03-22T08:39:00.581Z,5468.00
2023-03-22T08:40:00.637Z,4083.00
2023-03-22T08:41:00.569Z,3086.00
2023-03-22T08:42:00.579Z,4279.00
2023-03-22T08:43:00.501Z,3868.00
2023-03-22T08:44:00.544Z,3827.00
2023-03-22T08:45:00.585Z,3159.00
2023-03-22T08:46:00.519Z,2549.00
2023-03-22T08:47:02.194Z,3571.00
2023-03-22T08:48:00.526Z,2135.00
2023-03-22T08:49:00.479Z,1204.00
2023-03-22T08:50:00.434Z,5191.00
2023-03-22T08:51:00.434Z,1838.00
2023-03-22T08:52:00.489Z,6770.00
2023-03-22T08:53:01.177Z,5367.00
2023-03-22T08:54:00.385Z,3267.00
2023-03-22T08:55:00.485Z,2407.00
2023-03-22T08:56:00.397Z,2626.00
2023-03-22T08:57:00.392Z,3335.00
2023-03-22T08:58:00.407Z,1911.00
2023-03-22T08:59:00.363Z,3233.00
2023-03-22T09:00:00.374Z,1692.00
2023-03-22T09:01:00.435Z,2581.00
2023-03-22T09:02:00.546Z,2675.00
2023-03-22T09:03:00.336Z,2386.00
2023-03-22T09:04:00.519Z,2388.00
2023-03-22T09:05:00.266Z,3269.00
2023-03-22T09:06:00.270Z,3245.00
2023-03-22T09:07:00.253Z,4235.00
2023-03-22T09:08:06.110Z,3616.00
2023-03-22T09:09:00.260Z,2843.00
2023-03-22T09:10:00.220Z,3557.00
2023-03-22T09:11:00.236Z,4346.00
2023-03-22T09:12:00.243Z,4012.00
2023-03-22T09:13:00.184Z,3391.00
2023-03-22T09:14:00.243Z,3543.00
2023-03-22T09:15:00.195Z,2833.00
2023-03-22T09:16:00.301Z,3298.00
2023-03-22T09:17:00.175Z,2258.00
2023-03-22T09:18:00.146Z,2090.00
2023-03-22T09:19:00.158Z,2730.00
2023-03-22T09:20:11.617Z,3105.00
2023-03-22T09:21:00.115Z,3299.00
2023-03-22T09:22:00.128Z,2189.00
2023-03-22T09:23:00.155Z,1689.00
2023-03-22T09:24:00.129Z,2717.00
2023-03-22T09:25:00.062Z,2821.00
2023-03-22T09:26:00.092Z,2498.00
2023-03-22T09:27:00.102Z,2575.00
2023-03-22T09:28:00.042Z,2625.00
2023-03-22T09:29:00.054Z,2374.00
2023-03-22T09:30:00.072Z,2243.00
2023-03-22T09:31:00.028Z,2483.00
2023-03-22T09:31:59.999Z,1722.00
2023-03-22T09:32:59.985Z,2289.00
2023-03-22T09:33:59.995Z,2539.00
2023-03-22T09:34:59.975Z,1936.00
2023-03-22T09:36:00.082Z,1318.00
2023-03-22T09:36:59.955Z,2278.00
2023-03-22T09:37:59.936Z,2536.00
2023-03-22T09:38:59.923Z,1942.00
2023-03-22T09:39:59.938Z,1933.00
2023-03-22T09:40:59.907Z,2033.00
2023-03-22T09:41:59.883Z,2506.00
2023-03-22T09:42:59.892Z,3088.00
2023-03-22T09:43:59.903Z,3197.00
2023-03-22T09:44:59.943Z,4831.00
2023-03-22T09:45:59.922Z,5179.00
2023-03-22T09:46:59.836Z,4651.00
2023-03-22T09:47:59.903Z,4722.00
2023-03-22T09:48:59.848Z,5097.00
2023-03-22T09:49:59.788Z,3955.00
2023-03-22T09:50:59.780Z,4394.00
2023-03-22T09:51:59.853Z,3910.00
2023-03-22T09:52:59.784Z,4042.00
2023-03-22T09:53:59.814Z,4849.00
2023-03-22T09:54:59.731Z,4334.00
2023-03-22T09:55:59.747Z,4818.00
2023-03-22T09:56:59.733Z,4148.00
2023-03-22T09:57:59.763Z,4213.00
2023-03-22T09:58:59.729Z,4397.00
2023-03-22T09:59:59.694Z,4706.00
2023-03-22T10:00:59.789Z,4917.00
2023-03-22T10:01:59.970Z,3077.00
2023-03-22T10:02:59.653Z,3268.00
2023-03-22T10:03:59.763Z,4269.00
2023-03-22T10:04:59.702Z,3588.00
2023-03-22T10:05:59.658Z,3469.00
2023-03-22T10:06:59.672Z,2899.00
2023-03-22T10:07:59.596Z,2705.00
2023-03-22T10:08:59.614Z,2785.00
2023-03-22T10:09:59.586Z,2199.00
2023-03-22T10:10:59.597Z,2256.00
2023-03-22T10:11:59.561Z,2307.00
2023-03-22T10:12:59.560Z,2379.00
2023-03-22T10:13:59.562Z,2398.00
2023-03-22T10:14:59.521Z,3175.00
2023-03-22T10:15:59.581Z,2690.00
2023-03-22T10:16:59.495Z,3174.00
2023-03-22T10:17:59.515Z,2318.00
2023-03-22T10:18:59.473Z,1891.00
2023-03-22T10:19:59.538Z,1562.00
2023-03-22T10:20:59.504Z,2170.00
2023-03-22T10:21:59.463Z,1680.00
2023-03-22T10:22:59.474Z,1777.00
2023-03-22T10:23:59.514Z,2134.00
2023-03-22T10:24:59.418Z,3218.00
2023-03-22T10:25:59.479Z,3076.00
2023-03-22T10:26:59.393Z,4372.00
2023-03-22T10:27:59.400Z,4475.00
2023-03-22T10:28:59.400Z,5366.00
2023-03-22T10:29:59.418Z,4526.00
2023-03-22T10:30:59.429Z,4804.00
2023-03-22T10:31:59.378Z,5251.00
2023-03-22T10:32:59.370Z,5424.00
2023-03-22T10:33:59.356Z,3792.00
2023-03-22T10:34:59.352Z,4977.00
2023-03-22T10:35:59.407Z,4678.00
2023-03-22T10:36:59.284Z,5256.00
2023-03-22T10:37:59.290Z,3641.00
2023-03-22T10:38:59.336Z,4882.00
2023-03-22T10:39:59.269Z,4861.00
2023-03-22T10:40:59.260Z,4191.00
2023-03-22T10:41:59.280Z,4923.00
2023-03-22T10:42:59.249Z,4447.00
2023-03-22T10:43:59.216Z,3988.00
2023-03-22T10:44:59.207Z,3164.00
2023-03-22T10:45:59.235Z,4235.00
2023-03-22T10:46:59.338Z,4069.00
2023-03-22T10:47:59.191Z,5409.00
2023-03-22T10:49:02.076Z,3660.00
2023-03-22T10:49:59.172Z,3582.00
2023-03-22T10:50:59.139Z,2482.00
2023-03-22T10:51:59.150Z,4998.00
2023-03-22T10:52:59.109Z,4331.00
2023-03-22T10:53:59.141Z,4376.00
2023-03-22T10:55:02.442Z,4323.00
2023-03-22T10:55:59.089Z,4383.00
2023-03-22T10:56:59.117Z,3648.00
2023-03-22T10:57:59.092Z,3498.00
2023-03-22T10:58:59.049Z,3784.00
2023-03-22T10:59:59.052Z,4577.00
2023-03-22T11:00:59.121Z,4585.00
2023-03-22T11:01:59.213Z,4760.00
2023-03-22T11:02:59.153Z,4862.00
2023-03-22T11:03:59.064Z,4463.00
2023-03-22T11:04:58.994Z,4564.00
2023-03-22T11:05:59.024Z,4442.00
2023-03-22T11:06:58.994Z,3771.00
2023-03-22T11:07:59.007Z,4494.00
2023-03-22T11:08:58.964Z,3951.00
2023-03-22T11:09:58.964Z,3201.00
2023-03-22T11:10:58.975Z,3931.00
2023-03-22T11:11:58.928Z,4171.00
2023-03-22T11:12:58.926Z,3645.00
2023-03-22T11:13:58.899Z,4049.00
2023-03-22T11:14:58.911Z,3977.00
2023-03-22T11:15:58.882Z,4159.00
2023-03-22T11:16:58.898Z,3969.00
2023-03-22T11:17:58.903Z,3823.00
2023-03-22T11:18:58.833Z,3801.00
2023-03-22T11:19:58.927Z,3723.00
2023-03-22T11:20:58.856Z,3501.00
2023-03-22T11:21:58.839Z,2995.00
2023-03-22T11:22:58.805Z,2993.00
2023-03-22T11:23:58.840Z,3034.00
2023-03-22T11:24:58.802Z,2983.00
2023-03-22T11:25:58.813Z,3091.00
2023-03-22T11:26:58.783Z,3122.00
2023-03-22T11:27:58.769Z,3035.00
2023-03-22T11:28:58.772Z,3139.00
2023-03-22T11:29:58.742Z,3379.00
2023-03-22T11:30:58.745Z,3205.00
2023-03-22T11:31:58.837Z,3293.00
2023-03-22T11:32:58.781Z,3023.00
2023-03-22T11:33:58.724Z,3197.00
2023-03-22T11:34:58.723Z,3211.00
2023-03-22T11:35:58.780Z,3360.00
2023-03-22T11:36:58.664Z,3284.00
2023-03-22T11:37:58.644Z,3267.00
2023-03-22T11:38:58.668Z,3110.00
2023-03-22T11:39:58.626Z,2979.00
2023-03-22T11:40:58.632Z,3007.00
2023-03-22T11:41:58.616Z,2927.00
2023-03-22T11:42:58.599Z,2809.00
2023-03-22T11:43:58.631Z,2836.00
2023-03-22T11:44:58.651Z,2865.00
2023-03-22T11:45:58.595Z,2835.00
2023-03-22T11:46:58.539Z,2996.00
2023-03-22T11:47:58.644Z,2983.00
2023-03-22T11:49:00.957Z,2886.00
2023-03-22T11:49:58.497Z,2780.00
2023-03-22T11:50:58.529Z,2638.00
2023-03-22T11:51:58.492Z,2592.00
2023-03-22T11:52:58.511Z,2623.00
2023-03-22T11:53:58.472Z,2607.00
2023-03-22T11:54:58.502Z,2381.00
2023-03-22T11:55:58.443Z,2373.00
2023-03-22T11:56:58.477Z,2336.00
2023-03-22T11:57:58.494Z,2372.00
2023-03-22T11:59:01.133Z,2243.00
2023-03-22T11:59:58.417Z,2059.00
2023-03-22T12:00:58.444Z,1948.00
2023-03-22T12:01:58.411Z,1823.00
2023-03-22T12:02:58.495Z,1916.00
2023-03-22T12:03:58.453Z,2004.00
2023-03-22T12:04:58.383Z,2012.00
2023-03-22T12:05:58.358Z,1952.00
2023-03-22T12:06:58.354Z,1860.00
2023-03-22T12:07:58.320Z,1811.00
2023-03-22T12:08:58.320Z,1820.00
2023-03-22T12:09:59.158Z,1646.00
2023-03-22T12:10:58.310Z,1510.00
2023-03-22T12:11:58.289Z,1912.00
2023-03-22T12:12:58.315Z,1563.00
2023-03-22T12:13:58.292Z,1997.00
2023-03-22T12:14:58.247Z,2342.00
2023-03-22T12:15:58.245Z,1665.00
2023-03-22T12:16:58.221Z,1769.00
2023-03-22T12:17:58.268Z,1747.00
2023-03-22T12:18:58.271Z,1811.00
2023-03-22T12:19:58.202Z,1769.00
2023-03-22T12:20:58.202Z,1848.00
2023-03-22T12:21:58.174Z,1730.00
2023-03-22T12:22:58.165Z,1923.00
2023-03-22T12:23:58.156Z,1800.00
2023-03-22T12:24:58.162Z,1790.00
2023-03-22T12:25:58.129Z,1690.00
2023-03-22T12:26:58.153Z,1810.00
2023-03-22T12:27:58.109Z,1956.00
2023-03-22T12:28:58.171Z,1994.00
2023-03-22T12:29:58.080Z,2020.00
2023-03-22T12:30:58.129Z,2077.00
2023-03-22T12:31:58.155Z,2244.00
2023-03-22T12:32:58.190Z,2596.00
2023-03-22T12:33:58.088Z,2479.00
2023-03-22T12:35:16.129Z,2683.00
2023-03-22T12:35:58.039Z,2718.00
2023-03-22T12:36:58.018Z,2714.00